TAG London Farnborough Airport

Airport
ICAO code: 
EGLF
IATA Code: 
FAB
Summary
ICAO Region: 
EUR
Territory: 
Location: 
Farnborough, England
Serving: 
Farnborough
Elevation: 
238 ft
Coordinates: 
Aerial View: 
51° 16' 42.996" N, 0° 46' 18.001" W
Metar
Observation
EGLF 011250Z AUTO 28012KT 240V330 9999 SCT032/// BKN038/// 09/03 Q0998
Station
Farnborough
Date/Time
2021-12-01 12:50:00
Wind direction
280°
Wind speed
12 kts
Lowest cloud amount
scattered clouds
Temperature
9°C
Dew point
3°C
Humidity
66%
QNH
998 hPa
Weather condition
n/a

Description

Business Airport to the south west of London which serves as a corporate and private jet hub. Farnborough also hosts the Farnborough International Air Show every 2 years.

Climatology

Temperate Marine climate/Oceanic climate (Köppen climate classification Cfb). Moderately cool summer and comparatively warm winter with a temperature range of only 14°C. Prevailing south-westerly winds from the Atlantic Ocean.

Runways

Designator Length Width Surface Rops
6/24 2440 45 ASP Yes/Yes
Airport map: 
Aerial View: 

SKYbrary Partners:

Safety knowledge contributed by: